Terminal Aerodrome Forecast
Issued by NWS Duluth, MN

Home | Current Version | Previous Version | Text Only | Print | Product List | Glossary On
Versions: 1 2 3 4 5 6 7 8 9 10 11 12 13 14 15 16 17 18 19 20 21 22 23 24 25 26 27 28 29 30 31
532
FTUS43 KDLH 050541
TAFDLH
TAF
KDLH 050541Z 0506/0606 27012KT P6SM -SN BKN015 OVC025
      TEMPO 0506/0508 3SM -FZDZSN BR OVC008
     FM050800 26009KT P6SM BKN015 OVC025
     FM051300 21006KT P6SM BKN025
     FM051600 14006KT P6SM BKN015
     FM052000 11006KT P6SM VCSH BKN008
     FM060100 15012KT 3SM -SN OVC006=

USA.gov is the U.S. government's official web portal to all federal, state and local government web resources and services.